Arriba, Colorado
Current Conditions -  °F | °C
As of 6:55 PM on Monday 24 Nov 2014 (Local Time) from KLIC Reporting Station
Clear Clear  
Wind Chill: -9°   Ceiling: Unl
Heat Index: -3°   Visibility: 10mi
Dew Point: -9°   Wind: 13mph
Humidity: 66%   Direction: 330°NNW
Pressure: 30.18"   Gusts: NA
Location:  39.29°N, 103.28°W
Report Text: KLIC 250155Z AUTO 33011KT 10SM CLR M03/M09 A3018 RMK AO2 SLP257 T10331089
Loading
Personal Weather Stations






























Interactive Weather Map New forecast layout! Learn more

10-Day Weather Forecast

Advertisements
Track Severe Weather on mobile